createdAt,value
2023-10-13T00:01:55.880Z,100.00
2023-10-13T00:04:25.628Z,100.00
2023-10-13T00:06:55.126Z,100.00
2023-10-13T00:09:26.729Z,100.00
2023-10-13T00:11:57.559Z,100.00
2023-10-13T00:14:33.468Z,100.00
2023-10-13T00:17:05.768Z,100.00
2023-10-13T00:19:46.576Z,100.00
2023-10-13T00:22:17.438Z,100.00
2023-10-13T00:24:48.070Z,100.00
2023-10-13T00:27:30.616Z,100.00
2023-10-13T00:30:14.047Z,100.00
2023-10-13T00:32:46.096Z,100.00
2023-10-13T00:35:26.195Z,100.00
2023-10-13T00:37:55.812Z,100.00
2023-10-13T00:40:41.654Z,100.00
2023-10-13T00:43:28.456Z,100.00
2023-10-13T00:45:58.704Z,100.00
2023-10-13T00:48:30.763Z,100.00
2023-10-13T00:51:04.052Z,100.00
2023-10-13T00:53:34.680Z,100.00
2023-10-13T00:56:08.443Z,100.00
2023-10-13T00:58:37.033Z,100.00
2023-10-13T01:01:19.941Z,100.00
2023-10-13T01:03:50.308Z,100.00
2023-10-13T01:06:19.761Z,100.00
2023-10-13T01:08:52.261Z,100.00
2023-10-13T01:11:25.050Z,100.00
2023-10-13T01:13:54.687Z,100.00
2023-10-13T01:16:25.060Z,100.00
2023-10-13T01:19:00.573Z,100.00
2023-10-13T01:21:30.546Z,100.00
2023-10-13T01:24:00.310Z,100.00
2023-10-13T01:26:29.362Z,100.00
2023-10-13T01:29:00.656Z,100.00
2023-10-13T01:31:31.215Z,100.00
2023-10-13T01:34:00.283Z,100.00
2023-10-13T01:36:29.473Z,100.00
2023-10-13T01:38:57.883Z,100.00
2023-10-13T01:41:28.459Z,100.00
2023-10-13T01:43:58.502Z,100.00
2023-10-13T01:46:29.647Z,100.00
2023-10-13T01:48:58.197Z,100.00
2023-10-13T01:51:29.945Z,100.00
2023-10-13T01:53:58.733Z,100.00
2023-10-13T01:56:32.305Z,100.00
2023-10-13T01:59:00.682Z,100.00
2023-10-13T02:01:35.865Z,100.00
2023-10-13T02:04:05.297Z,100.00
2023-10-13T02:06:34.958Z,100.00
2023-10-13T02:09:11.772Z,100.00
2023-10-13T02:11:42.962Z,100.00
2023-10-13T02:14:12.542Z,100.00
2023-10-13T02:16:41.661Z,100.00
2023-10-13T02:19:10.272Z,100.00
2023-10-13T02:21:42.251Z,100.00
2023-10-13T02:24:14.828Z,100.00
2023-10-13T02:26:45.350Z,100.00
2023-10-13T02:29:14.790Z,100.00
2023-10-13T02:31:44.714Z,100.00
2023-10-13T02:34:13.389Z,100.00
2023-10-13T02:36:48.432Z,100.00
2023-10-13T02:39:17.602Z,100.00
2023-10-13T02:41:50.119Z,100.00
2023-10-13T02:44:28.096Z,100.00
2023-10-13T02:46:58.188Z,100.00
2023-10-13T02:49:27.936Z,100.00
2023-10-13T02:52:00.146Z,100.00
2023-10-13T02:54:32.516Z,100.00
2023-10-13T02:57:05.067Z,100.00
2023-10-13T02:59:41.847Z,100.00
2023-10-13T03:02:19.494Z,100.00
2023-10-13T03:04:49.440Z,100.00
2023-10-13T03:07:23.952Z,100.00
2023-10-13T03:09:53.747Z,100.00
2023-10-13T03:12:25.038Z,100.00
2023-10-13T03:14:56.316Z,100.00
2023-10-13T03:17:34.811Z,100.00
2023-10-13T03:20:06.906Z,100.00
2023-10-13T03:22:37.299Z,100.00
2023-10-13T03:25:10.039Z,100.00
2023-10-13T03:28:02.870Z,100.00
2023-10-13T03:30:36.595Z,100.00
2023-10-13T03:33:09.518Z,100.00
2023-10-13T03:35:43.111Z,100.00
2023-10-13T03:38:18.200Z,100.00
2023-10-13T03:40:50.991Z,100.00
2023-10-13T03:43:23.338Z,100.00
2023-10-13T03:46:02.384Z,100.00
2023-10-13T03:48:32.646Z,100.00
2023-10-13T03:51:08.284Z,100.00
2023-10-13T03:53:37.913Z,100.00
2023-10-13T03:56:13.784Z,100.00
2023-10-13T03:58:47.854Z,100.00
2023-10-13T04:01:18.825Z,100.00
2023-10-13T04:04:10.903Z,100.00
2023-10-13T04:06:53.181Z,100.00
2023-10-13T04:09:40.365Z,100.00
2023-10-13T04:12:44.368Z,100.00
2023-10-13T04:15:22.022Z,100.00
2023-10-13T04:17:52.305Z,100.00
2023-10-13T04:20:34.412Z,100.00
2023-10-13T04:23:27.290Z,100.00
2023-10-13T04:26:22.613Z,100.00
2023-10-13T04:28:54.890Z,100.00
2023-10-13T04:31:42.073Z,100.00
2023-10-13T04:34:19.417Z,100.00
2023-10-13T04:36:47.705Z,100.00
2023-10-13T04:39:30.688Z,100.00
2023-10-13T04:41:59.365Z,100.00
2023-10-13T04:44:46.422Z,100.00
2023-10-13T04:47:23.881Z,100.00
2023-10-13T04:50:01.944Z,100.00
2023-10-13T04:55:44.955Z,100.00
2023-10-13T04:58:16.266Z,100.00
2023-10-13T05:00:57.509Z,100.00
2023-10-13T05:03:54.099Z,100.00
2023-10-13T05:06:55.596Z,100.00
2023-10-13T05:09:41.956Z,100.00
2023-10-13T05:12:28.985Z,100.00
2023-10-13T05:15:15.492Z,100.00
2023-10-13T05:18:02.573Z,100.00
2023-10-13T05:20:50.669Z,100.00
2023-10-13T05:23:37.633Z,100.00
2023-10-13T05:26:24.134Z,100.00
2023-10-13T05:29:22.569Z,100.00
2023-10-13T05:32:15.091Z,100.00
2023-10-13T05:35:01.920Z,100.00
2023-10-13T05:37:49.975Z,100.00
2023-10-13T05:40:37.036Z,100.00
2023-10-13T05:43:23.520Z,100.00
2023-10-13T05:46:18.965Z,100.00
2023-10-13T05:51:59.559Z,52.13
2023-10-13T05:55:00.913Z,52.33
2023-10-13T05:57:47.383Z,52.63
2023-10-13T06:00:35.000Z,52.68
2023-10-13T06:03:21.389Z,52.56
2023-10-13T06:06:08.310Z,52.77
2023-10-13T06:08:56.472Z,52.59
2023-10-13T06:11:43.468Z,52.85
2023-10-13T06:14:30.031Z,52.74
2023-10-13T06:17:17.344Z,52.29
2023-10-13T06:20:04.149Z,52.58
2023-10-13T06:22:51.197Z,52.08
2023-10-13T06:25:38.507Z,52.14
2023-10-13T06:28:36.766Z,51.93
2023-10-13T06:31:07.338Z,51.87
2023-10-13T06:33:36.860Z,51.80
2023-10-13T06:36:10.683Z,52.08
2023-10-13T06:38:40.300Z,51.89
2023-10-13T06:41:09.848Z,51.79
2023-10-13T06:43:41.270Z,51.79
2023-10-13T06:46:16.200Z,52.09
2023-10-13T06:48:45.873Z,52.51
2023-10-13T06:51:22.727Z,52.27
2023-10-13T06:53:57.721Z,52.58
2023-10-13T06:56:30.469Z,52.41
2023-10-13T06:59:05.432Z,52.24
2023-10-13T07:01:39.978Z,52.63
2023-10-13T07:04:14.714Z,52.37
2023-10-13T07:06:49.123Z,52.01
2023-10-13T07:09:40.780Z,52.11
2023-10-13T07:12:17.986Z,52.06
2023-10-13T07:14:52.940Z,52.22
2023-10-13T07:17:26.309Z,52.14
2023-10-13T07:19:57.273Z,52.46
2023-10-13T07:22:29.327Z,52.72
2023-10-13T07:24:59.465Z,52.72
2023-10-13T07:27:30.068Z,52.49
2023-10-13T07:30:14.630Z,52.63
2023-10-13T07:32:47.991Z,52.47
2023-10-13T07:35:19.062Z,52.49
2023-10-13T07:37:50.183Z,52.63
2023-10-13T07:40:41.294Z,52.30
2023-10-13T07:43:12.229Z,52.35
2023-10-13T07:45:43.026Z,52.46
2023-10-13T07:48:20.521Z,52.61
2023-10-13T07:51:02.640Z,52.55
2023-10-13T07:53:36.004Z,52.54
2023-10-13T07:56:07.174Z,52.41
2023-10-13T07:58:48.653Z,52.50
2023-10-13T08:01:21.402Z,52.39
2023-10-13T08:04:05.866Z,52.13
2023-10-13T08:06:38.002Z,52.50
2023-10-13T08:09:30.261Z,52.28
2023-10-13T08:11:59.781Z,52.37
2023-10-13T08:14:39.476Z,52.37
2023-10-13T08:17:12.012Z,52.40
2023-10-13T08:19:47.202Z,52.33
2023-10-13T08:22:26.387Z,52.13
2023-10-13T08:25:00.849Z,52.40
2023-10-13T08:27:35.845Z,52.23
2023-10-13T08:30:24.982Z,52.29
2023-10-13T08:32:58.711Z,52.24
2023-10-13T08:35:38.341Z,52.40
2023-10-13T08:38:26.770Z,52.06
2023-10-13T08:41:13.975Z,52.30
2023-10-13T08:43:46.513Z,52.32
2023-10-13T08:46:28.924Z,52.27
2023-10-13T08:49:10.065Z,52.09
2023-10-13T08:51:50.578Z,52.17
2023-10-13T08:54:35.551Z,52.00
2023-10-13T08:57:34.891Z,52.28
2023-10-13T09:00:18.599Z,52.09
2023-10-13T09:03:18.146Z,52.13
2023-10-13T09:06:02.710Z,52.10
2023-10-13T09:08:37.008Z,52.30
2023-10-13T09:11:14.353Z,52.35
2023-10-13T09:13:45.723Z,52.42
2023-10-13T09:43:19.448Z,51.89
2023-10-13T09:46:03.189Z,52.16
